Time;durP1;ratioP1;P1;durP2;ratioP2;P2;SDS_P1;SDS_P2;PMS_P1;PMS_P2;Temp;Humidity;BMP_temperature;BMP_pressure;BME280_temperature;BME280_humidity;BME280_pressure;Samples;Min_cycle;Max_cycle;Signal;HPM_P1;HPM_P2
2023/09/01 00:01:03;;;;;;;38.13;5.68;;;;;;;;;;5052121;28;20061;-40
2023/09/01 00:03:30;;;;;;;30.25;5.85;;;;;;;;;;5037399;28;20038;-40
2023/09/01 00:05:58;;;;;;;40.03;6.65;;;;;;;;;;5038872;28;20031;-41
2023/09/01 00:08:25;;;;;;;29.00;6.13;;;;;;;;;;5037962;28;20037;-43
2023/09/01 00:10:52;;;;;;;35.65;7.50;;;;;;;;;;5014187;28;20033;-42
2023/09/01 00:13:19;;;;;;;42.50;8.02;;;;;;;;;;5032255;28;20037;-40
2023/09/01 00:15:46;;;;;;;49.50;11.82;;;;;;;;;;5031559;28;20119;-40
2023/09/01 00:18:13;;;;;;;36.53;11.65;;;;;;;;;;5031550;28;20021;-41
2023/09/01 00:20:40;;;;;;;51.00;15.10;;;;;;;;;;5042689;28;20082;-41
2023/09/01 00:23:07;;;;;;;52.90;16.95;;;;;;;;;;5051143;28;20036;-41
2023/09/01 00:25:34;;;;;;;53.03;18.33;;;;;;;;;;5051077;28;20528;-41
2023/09/01 00:28:01;;;;;;;56.83;19.30;;;;;;;;;;5050902;28;20082;-41
2023/09/01 00:30:29;;;;;;;55.67;18.83;;;;;;;;;;5051781;28;20483;-41
2023/09/01 00:32:56;;;;;;;52.20;20.15;;;;;;;;;;5051598;28;20025;-41
2023/09/01 00:35:23;;;;;;;55.92;20.02;;;;;;;;;;5051542;28;20620;-41
2023/09/01 00:37:51;;;;;;;64.40;21.30;;;;;;;;;;5051023;28;20031;-41
2023/09/01 00:40:18;;;;;;;64.50;22.00;;;;;;;;;;5051097;28;20048;-43
2023/09/01 00:42:48;;;;;;;77.55;26.75;;;;;;;;;;5051087;28;20425;-43
2023/09/01 00:45:15;;;;;;;84.47;27.55;;;;;;;;;;5051541;28;20013;-45
2023/09/01 00:47:42;;;;;;;87.95;31.65;;;;;;;;;;5051278;28;20025;-43
2023/09/01 00:50:09;;;;;;;97.57;32.03;;;;;;;;;;5051621;28;20134;-43
2023/09/01 00:52:36;;;;;;;110.38;35.63;;;;;;;;;;5051162;28;20098;-43
2023/09/01 00:55:03;;;;;;;102.38;36.47;;;;;;;;;;5051351;28;20056;-43
2023/09/01 00:57:30;;;;;;;106.55;35.60;;;;;;;;;;5051256;28;20566;-43
2023/09/01 00:59:58;;;;;;;102.65;35.47;;;;;;;;;;5037584;28;20033;-43
2023/09/01 01:02:25;;;;;;;105.25;36.20;;;;;;;;;;5051008;28;20033;-43
2023/09/01 01:04:53;;;;;;;101.32;35.92;;;;;;;;;;5048549;28;21436;-43
2023/09/01 01:07:23;;;;;;;107.35;33.83;;;;;;;;;;5032556;28;20029;-43
2023/09/01 01:10:04;;;;;;;100.03;34.40;;;;;;;;;;5051264;28;20059;-43
2023/09/01 01:12:37;;;;;;;96.03;34.42;;;;;;;;;;5050634;28;20033;-42
2023/09/01 01:15:09;;;;;;;102.40;33.97;;;;;;;;;;5038272;28;20045;-43
2023/09/01 01:17:40;;;;;;;93.50;33.15;;;;;;;;;;5036934;28;20036;-43
2023/09/01 01:20:13;;;;;;;91.50;33.03;;;;;;;;;;5045511;28;20033;-43
2023/09/01 01:22:47;;;;;;;91.72;31.17;;;;;;;;;;5050079;28;20485;-43
2023/09/01 01:25:14;;;;;;;92.68;30.77;;;;;;;;;;5050561;28;20024;-42
2023/09/01 01:27:45;;;;;;;90.45;30.75;;;;;;;;;;5050945;28;20150;-44
2023/09/01 01:30:15;;;;;;;88.13;31.30;;;;;;;;;;5051362;28;20032;-43
2023/09/01 01:32:43;;;;;;;87.20;30.65;;;;;;;;;;5035230;28;20067;-43
2023/09/01 01:35:29;;;;;;;88.38;31.17;;;;;;;;;;5057102;28;20033;-43
2023/09/01 01:38:34;;;;;;;90.25;31.95;;;;;;;;;;5049151;28;20424;-42
2023/09/01 01:41:08;;;;;;;86.20;30.15;;;;;;;;;;4961266;28;20486;-42
2023/09/01 01:43:37;;;;;;;91.60;30.48;;;;;;;;;;4957529;28;20050;-43
2023/09/01 01:46:04;;;;;;;80.97;30.17;;;;;;;;;;5013102;28;20041;-40
2023/09/01 01:48:36;;;;;;;91.88;31.27;;;;;;;;;;5056477;28;20032;-42
2023/09/01 01:51:05;;;;;;;85.28;29.70;;;;;;;;;;5055594;28;20021;-42
2023/09/01 01:53:39;;;;;;;88.25;29.48;;;;;;;;;;5047970;28;20044;-41
2023/09/01 01:56:07;;;;;;;83.68;29.88;;;;;;;;;;5049432;28;20378;-40
2023/09/01 01:58:34;;;;;;;86.30;28.58;;;;;;;;;;5049444;28;20017;-42
2023/09/01 02:01:06;;;;;;;77.45;28.90;;;;;;;;;;5049787;28;20021;-42
2023/09/01 02:03:33;;;;;;;68.35;27.00;;;;;;;;;;5049764;28;20036;-40
2023/09/01 02:06:00;;;;;;;84.03;29.55;;;;;;;;;;5049467;28;20033;-41
2023/09/01 02:08:27;;;;;;;85.05;28.48;;;;;;;;;;5049199;28;20043;-41
2023/09/01 02:10:55;;;;;;;73.20;27.05;;;;;;;;;;5033691;28;20025;-40
2023/09/01 02:13:22;;;;;;;76.07;26.40;;;;;;;;;;5054083;28;20024;-42
2023/09/01 02:15:53;;;;;;;74.15;27.58;;;;;;;;;;5054021;28;20052;-41
2023/09/01 02:18:20;;;;;;;68.57;26.42;;;;;;;;;;5053871;28;20032;-43
2023/09/01 02:20:47;;;;;;;70.45;25.85;;;;;;;;;;5053875;28;20025;-42
2023/09/01 02:23:18;;;;;;;70.05;25.25;;;;;;;;;;5054250;28;20040;-40
2023/09/01 02:25:46;;;;;;;60.63;25.08;;;;;;;;;;5054590;28;20028;-39
2023/09/01 02:28:13;;;;;;;62.90;24.95;;;;;;;;;;5054424;28;20086;-39
2023/09/01 02:30:40;;;;;;;65.05;24.60;;;;;;;;;;5054314;28;20024;-40
2023/09/01 02:33:07;;;;;;;65.45;24.33;;;;;;;;;;5054443;28;20039;-40
2023/09/01 02:35:35;;;;;;;64.55;23.40;;;;;;;;;;5054356;28;20029;-39
2023/09/01 02:38:02;;;;;;;65.80;23.58;;;;;;;;;;5054089;28;20526;-39
2023/09/01 02:40:29;;;;;;;60.42;22.92;;;;;;;;;;5054091;28;20029;-40
2023/09/01 02:42:56;;;;;;;63.55;23.50;;;;;;;;;;5036072;28;20029;-40
2023/09/01 02:45:24;;;;;;;61.05;23.48;;;;;;;;;;5053995;28;20044;-40
2023/09/01 02:47:51;;;;;;;62.97;23.02;;;;;;;;;;5053927;28;20548;-40
2023/09/01 02:50:18;;;;;;;62.65;21.85;;;;;;;;;;5054024;28;20494;-40
2023/09/01 02:52:45;;;;;;;56.47;22.00;;;;;;;;;;5053783;28;20520;-39
2023/09/01 02:55:14;;;;;;;57.35;22.33;;;;;;;;;;5053344;28;20132;-41
2023/09/01 02:57:41;;;;;;;54.30;20.60;;;;;;;;;;5053662;28;20025;-42
2023/09/01 03:00:17;;;;;;;55.15;21.67;;;;;;;;;;5053819;28;20029;-41
2023/09/01 03:02:45;;;;;;;55.58;22.10;;;;;;;;;;5053911;28;20127;-42
2023/09/01 03:05:12;;;;;;;42.28;19.65;;;;;;;;;;5053843;28;20368;-41
2023/09/01 03:07:40;;;;;;;46.10;20.05;;;;;;;;;;5052898;28;20702;-39
2023/09/01 03:10:07;;;;;;;45.53;20.35;;;;;;;;;;5053484;28;20055;-40
2023/09/01 03:12:35;;;;;;;51.60;20.55;;;;;;;;;;5053661;28;20052;-39
2023/09/01 03:15:03;;;;;;;52.15;20.50;;;;;;;;;;5053323;28;20094;-40
2023/09/01 03:17:30;;;;;;;47.40;18.90;;;;;;;;;;5053363;28;20091;-40
2023/09/01 03:19:56;;;;;;;47.97;19.08;;;;;;;;;;5053317;28;20471;-40
2023/09/01 03:22:23;;;;;;;45.90;19.42;;;;;;;;;;5052838;28;20036;-39
2023/09/01 03:24:53;;;;;;;48.03;19.67;;;;;;;;;;5053251;28;20033;-39
2023/09/01 03:27:21;;;;;;;45.78;19.13;;;;;;;;;;5053122;28;20454;-41
2023/09/01 03:29:51;;;;;;;38.53;17.10;;;;;;;;;;5053060;28;20029;-39
2023/09/01 03:32:18;;;;;;;46.22;18.80;;;;;;;;;;5053072;28;20029;-40
2023/09/01 03:34:45;;;;;;;48.33;18.35;;;;;;;;;;5053103;28;20035;-40
2023/09/01 03:37:13;;;;;;;41.25;17.33;;;;;;;;;;5053119;28;20029;-39
2023/09/01 03:39:40;;;;;;;44.10;17.15;;;;;;;;;;5052747;28;20490;-41
2023/09/01 03:42:07;;;;;;;46.85;18.00;;;;;;;;;;5052971;28;20037;-41
2023/09/01 03:44:34;;;;;;;41.13;17.83;;;;;;;;;;5053092;28;20025;-41
2023/09/01 03:47:01;;;;;;;44.13;17.17;;;;;;;;;;5053131;28;20021;-41
2023/09/01 03:49:28;;;;;;;48.38;16.60;;;;;;;;;;5052933;28;20090;-41
2023/09/01 03:51:55;;;;;;;37.80;16.95;;;;;;;;;;5052636;28;20487;-39
2023/09/01 03:54:22;;;;;;;39.30;17.05;;;;;;;;;;5052889;28;20021;-39
2023/09/01 03:56:50;;;;;;;35.67;16.40;;;;;;;;;;5052824;28;20025;-39
2023/09/01 03:59:17;;;;;;;32.63;15.70;;;;;;;;;;5052937;28;20033;-40
2023/09/01 04:01:44;;;;;;;42.08;15.45;;;;;;;;;;5052733;28;20079;-39
2023/09/01 04:04:11;;;;;;;41.55;16.05;;;;;;;;;;5052783;28;20364;-40
2023/09/01 04:06:41;;;;;;;38.03;16.08;;;;;;;;;;5052759;28;20013;-39
2023/09/01 04:09:09;;;;;;;34.03;15.32;;;;;;;;;;5052596;28;20029;-39
2023/09/01 04:11:36;;;;;;;35.50;15.48;;;;;;;;;;5052577;28;20034;-39
2023/09/01 04:14:03;;;;;;;32.60;14.10;;;;;;;;;;5052375;28;20024;-40
2023/09/01 04:16:30;;;;;;;33.05;14.65;;;;;;;;;;5052518;28;20053;-39
2023/09/01 04:18:57;;;;;;;35.15;14.95;;;;;;;;;;5052405;28;20505;-39
2023/09/01 04:21:24;;;;;;;36.13;14.73;;;;;;;;;;5052376;28;20417;-39
2023/09/01 04:23:51;;;;;;;33.78;14.30;;;;;;;;;;5052337;28;20082;-39
2023/09/01 04:26:18;;;;;;;30.17;14.20;;;;;;;;;;5052084;28;20029;-39
2023/09/01 04:28:45;;;;;;;32.60;13.52;;;;;;;;;;5052236;28;20029;-39
2023/09/01 04:31:15;;;;;;;31.23;13.15;;;;;;;;;;5052176;28;20109;-39
2023/09/01 04:33:43;;;;;;;33.70;13.27;;;;;;;;;;5033436;28;20437;-39
2023/09/01 04:36:10;;;;;;;30.38;12.82;;;;;;;;;;5052403;28;20068;-39
2023/09/01 04:38:37;;;;;;;26.55;12.98;;;;;;;;;;5052110;28;20132;-39
2023/09/01 04:41:04;;;;;;;27.95;12.98;;;;;;;;;;5052143;28;20021;-39
2023/09/01 04:43:31;;;;;;;27.15;12.65;;;;;;;;;;5051956;28;20063;-39
2023/09/01 04:45:58;;;;;;;29.90;12.65;;;;;;;;;;5052010;28;20021;-39
2023/09/01 04:48:26;;;;;;;25.73;12.43;;;;;;;;;;5051891;28;20517;-39
2023/09/01 04:50:53;;;;;;;28.63;12.63;;;;;;;;;;5051969;28;20017;-39
2023/09/01 04:53:21;;;;;;;25.40;12.18;;;;;;;;;;5051847;28;20436;-39
2023/09/01 04:55:49;;;;;;;30.70;11.75;;;;;;;;;;5051904;28;20032;-39
2023/09/01 04:58:16;;;;;;;23.83;12.07;;;;;;;;;;5051611;28;20064;-39
2023/09/01 05:00:44;;;;;;;29.60;12.82;;;;;;;;;;5051749;28;20091;-39
2023/09/01 05:03:11;;;;;;;24.60;12.27;;;;;;;;;;5051638;28;20036;-39
2023/09/01 05:05:38;;;;;;;25.73;11.15;;;;;;;;;;5033699;28;20521;-39
2023/09/01 05:08:05;;;;;;;24.65;11.40;;;;;;;;;;5051614;28;20115;-39
2023/09/01 05:10:32;;;;;;;24.42;11.15;;;;;;;;;;5051601;28;20033;-39
2023/09/01 05:12:59;;;;;;;26.60;11.38;;;;;;;;;;5051701;28;20040;-39
2023/09/01 05:15:26;;;;;;;24.90;11.00;;;;;;;;;;5051390;28;20053;-39
2023/09/01 05:17:52;;;;;;;20.35;10.95;;;;;;;;;;5051543;28;20025;-39
2023/09/01 05:20:19;;;;;;;20.58;10.30;;;;;;;;;;5051563;28;20382;-39
2023/09/01 05:22:46;;;;;;;23.02;9.93;;;;;;;;;;5051397;28;20040;-44
2023/09/01 05:25:14;;;;;;;23.95;10.13;;;;;;;;;;5051432;28;20805;-39
2023/09/01 05:27:41;;;;;;;21.75;10.65;;;;;;;;;;5051262;28;20415;-39
2023/09/01 05:30:08;;;;;;;23.75;10.80;;;;;;;;;;5051429;28;20539;-39
2023/09/01 05:32:35;;;;;;;20.40;9.80;;;;;;;;;;5051440;28;20033;-39
2023/09/01 05:35:03;;;;;;;20.48;9.50;;;;;;;;;;5051424;28;20025;-39
2023/09/01 05:37:30;;;;;;;22.02;9.93;;;;;;;;;;5051308;28;20049;-39
2023/09/01 05:39:57;;;;;;;22.58;10.25;;;;;;;;;;5051468;28;20104;-39
2023/09/01 05:42:24;;;;;;;20.23;10.13;;;;;;;;;;5051255;28;20111;-39
2023/09/01 05:44:51;;;;;;;19.63;9.32;;;;;;;;;;5052580;28;20057;-39
2023/09/01 05:47:18;;;;;;;23.75;9.95;;;;;;;;;;5055293;28;20035;-39
2023/09/01 05:49:45;;;;;;;24.13;10.18;;;;;;;;;;5055101;28;20394;-39
2023/09/01 05:52:12;;;;;;;21.45;9.65;;;;;;;;;;5055188;28;20029;-39
2023/09/01 05:54:39;;;;;;;16.27;8.95;;;;;;;;;;5055218;28;20029;-39
2023/09/01 05:57:06;;;;;;;21.30;9.10;;;;;;;;;;5055181;28;20116;-39
2023/09/01 05:59:33;;;;;;;17.88;9.00;;;;;;;;;;5055043;28;20096;-39
2023/09/01 06:02:00;;;;;;;16.27;8.68;;;;;;;;;;5042623;28;20116;-39
2023/09/01 06:04:27;;;;;;;18.25;8.23;;;;;;;;;;5035162;28;20029;-39
2023/09/01 06:06:54;;;;;;;18.33;8.15;;;;;;;;;;5035006;28;20105;-39
2023/09/01 06:09:21;;;;;;;16.67;8.27;;;;;;;;;;5034911;28;20505;-39
2023/09/01 06:11:48;;;;;;;16.58;7.95;;;;;;;;;;5035020;28;20140;-39
2023/09/01 06:14:15;;;;;;;15.15;7.55;;;;;;;;;;5034679;28;20056;-39
2023/09/01 06:16:44;;;;;;;16.08;7.68;;;;;;;;;;5034823;28;20056;-39
2023/09/01 06:19:11;;;;;;;15.93;7.15;;;;;;;;;;5034781;28;20034;-39
2023/09/01 06:21:38;;;;;;;16.05;7.22;;;;;;;;;;5034697;28;20087;-39
2023/09/01 06:24:05;;;;;;;14.95;6.70;;;;;;;;;;5034734;28;20388;-39
2023/09/01 06:26:32;;;;;;;13.77;6.75;;;;;;;;;;5034716;28;20029;-39
2023/09/01 06:28:59;;;;;;;15.07;6.90;;;;;;;;;;5034566;28;20021;-39
2023/09/01 06:31:26;;;;;;;15.35;6.82;;;;;;;;;;5034673;28;20013;-39
2023/09/01 06:33:53;;;;;;;13.50;6.15;;;;;;;;;;5034610;28;20026;-39
2023/09/01 06:36:20;;;;;;;13.13;6.38;;;;;;;;;;5034525;28;20415;-39
2023/09/01 06:38:48;;;;;;;13.00;6.15;;;;;;;;;;5034416;28;20030;-39
2023/09/01 06:41:14;;;;;;;15.38;6.10;;;;;;;;;;5033981;28;20037;-39
2023/09/01 06:43:41;;;;;;;12.18;6.07;;;;;;;;;;5034277;28;20479;-39
2023/09/01 06:46:08;;;;;;;11.23;5.60;;;;;;;;;;5016635;28;20033;-39
2023/09/01 06:48:36;;;;;;;14.20;5.63;;;;;;;;;;5034110;28;20056;-39
2023/09/01 06:51:03;;;;;;;11.23;5.95;;;;;;;;;;5034143;28;20030;-39
2023/09/01 06:53:30;;;;;;;12.65;5.57;;;;;;;;;;5034242;28;20033;-39
2023/09/01 06:55:57;;;;;;;11.10;5.15;;;;;;;;;;5033526;28;20026;-39
2023/09/01 06:58:24;;;;;;;10.15;5.05;;;;;;;;;;5033977;28;20025;-39
2023/09/01 07:00:54;;;;;;;10.73;5.20;;;;;;;;;;5034130;28;20021;-39
2023/09/01 07:03:21;;;;;;;11.32;5.35;;;;;;;;;;5033906;28;20376;-39
2023/09/01 07:05:55;;;;;;;11.60;5.03;;;;;;;;;;5034002;28;20056;-39
2023/09/01 07:08:22;;;;;;;10.02;4.45;;;;;;;;;;5033867;28;20104;-39
2023/09/01 07:10:49;;;;;;;11.93;4.93;;;;;;;;;;5034049;28;20527;-39
2023/09/01 07:13:16;;;;;;;11.80;5.00;;;;;;;;;;5033949;28;20446;-39
2023/09/01 07:15:52;;;;;;;9.65;4.60;;;;;;;;;;5026647;28;20037;-38
2023/09/01 07:18:19;;;;;;;10.60;4.82;;;;;;;;;;5033696;28;20117;-39
2023/09/01 07:20:47;;;;;;;10.05;4.20;;;;;;;;;;5033759;28;20030;-39
2023/09/01 07:23:14;;;;;;;8.60;4.18;;;;;;;;;;5033613;28;20021;-39
2023/09/01 07:25:42;;;;;;;9.95;4.22;;;;;;;;;;5033541;28;20026;-39
2023/09/01 07:28:09;;;;;;;8.95;4.47;;;;;;;;;;5033397;28;20029;-39
2023/09/01 07:30:36;;;;;;;9.07;4.00;;;;;;;;;;5033543;28;20025;-39
2023/09/01 07:33:04;;;;;;;7.15;4.32;;;;;;;;;;5033554;28;20048;-39
2023/09/01 07:35:31;;;;;;;8.82;3.65;;;;;;;;;;5033478;28;20033;-39
2023/09/01 07:37:58;;;;;;;8.07;4.18;;;;;;;;;;5033229;28;20029;-40
2023/09/01 07:40:26;;;;;;;9.00;4.13;;;;;;;;;;5033409;28;20511;-40
2023/09/01 07:42:53;;;;;;;10.38;3.88;;;;;;;;;;5033082;28;20038;-39
2023/09/01 07:45:20;;;;;;;8.50;3.92;;;;;;;;;;5033353;28;20030;-39
2023/09/01 07:47:47;;;;;;;8.60;4.20;;;;;;;;;;5033086;28;20053;-39
2023/09/01 07:50:14;;;;;;;7.95;3.60;;;;;;;;;;5033137;28;20022;-40
2023/09/01 07:52:41;;;;;;;6.70;3.83;;;;;;;;;;5033151;28;20079;-39
2023/09/01 07:55:08;;;;;;;9.30;3.28;;;;;;;;;;5033046;28;20018;-39
2023/09/01 07:57:35;;;;;;;8.88;3.53;;;;;;;;;;5033035;28;20417;-39
2023/09/01 08:00:07;;;;;;;6.40;3.13;;;;;;;;;;5032898;28;20037;-40
2023/09/01 08:02:34;;;;;;;7.15;3.63;;;;;;;;;;5032727;28;20037;-40
2023/09/01 08:05:03;;;;;;;7.20;3.55;;;;;;;;;;5033033;28;20037;-40
2023/09/01 08:07:33;;;;;;;7.97;3.47;;;;;;;;;;5032636;28;20040;-40
2023/09/01 08:10:00;;;;;;;7.75;3.67;;;;;;;;;;5033006;28;20088;-40
2023/09/01 08:12:28;;;;;;;5.72;2.92;;;;;;;;;;5032790;28;20521;-40
2023/09/01 08:14:56;;;;;;;9.13;3.40;;;;;;;;;;5032567;28;20103;-39
2023/09/01 08:17:23;;;;;;;5.05;2.72;;;;;;;;;;5032626;28;20032;-40
2023/09/01 08:19:50;;;;;;;6.45;2.97;;;;;;;;;;5032636;28;20148;-40
2023/09/01 08:22:18;;;;;;;6.30;3.08;;;;;;;;;;5032506;28;20590;-40
2023/09/01 08:24:45;;;;;;;7.53;2.97;;;;;;;;;;5032582;28;20033;-40
2023/09/01 08:27:13;;;;;;;6.40;2.90;;;;;;;;;;5032294;28;20032;-40
2023/09/01 08:29:41;;;;;;;6.95;3.20;;;;;;;;;;5032400;28;20025;-39
2023/09/01 08:32:10;;;;;;;7.10;3.40;;;;;;;;;;5032262;28;20041;-40
2023/09/01 08:34:37;;;;;;;5.85;3.00;;;;;;;;;;5032296;28;20029;-40
2023/09/01 08:37:04;;;;;;;7.28;3.15;;;;;;;;;;5032076;28;20032;-39
2023/09/01 08:39:31;;;;;;;7.10;3.45;;;;;;;;;;5032086;28;20112;-40
2023/09/01 08:41:59;;;;;;;4.53;2.97;;;;;;;;;;5039211;28;20395;-40
2023/09/01 08:44:27;;;;;;;5.57;2.90;;;;;;;;;;5052163;28;20159;-39
2023/09/01 08:46:55;;;;;;;6.13;3.15;;;;;;;;;;5051967;28;20024;-40
2023/09/01 08:49:27;;;;;;;6.97;2.92;;;;;;;;;;5052128;28;20036;-39
2023/09/01 08:51:55;;;;;;;4.95;2.67;;;;;;;;;;5051915;28;20033;-39
2023/09/01 08:54:23;;;;;;;5.30;2.60;;;;;;;;;;5051726;28;20528;-40
2023/09/01 08:56:50;;;;;;;5.38;2.75;;;;;;;;;;5051826;28;20041;-39
2023/09/01 08:59:17;;;;;;;7.30;2.88;;;;;;;;;;5051664;28;20117;-39
2023/09/01 09:01:44;;;;;;;5.88;2.70;;;;;;;;;;5051809;28;20108;-40
2023/09/01 09:04:11;;;;;;;4.88;2.60;;;;;;;;;;5050806;28;20033;-40
2023/09/01 09:06:39;;;;;;;6.20;3.00;;;;;;;;;;5050918;28;20517;-40
2023/09/01 09:09:17;;;;;;;5.35;2.65;;;;;;;;;;5048522;28;20065;-40
2023/09/01 09:11:57;;;;;;;6.70;2.50;;;;;;;;;;5048917;28;20040;-39
2023/09/01 09:14:25;;;;;;;5.28;2.53;;;;;;;;;;5051348;28;20083;-39
2023/09/01 09:16:56;;;;;;;12.77;2.72;;;;;;;;;;5050751;28;20079;-41
2023/09/01 09:19:23;;;;;;;8.23;2.95;;;;;;;;;;5051105;28;20040;-41
2023/09/01 09:21:50;;;;;;;5.15;2.22;;;;;;;;;;5047598;28;20083;-39
2023/09/01 09:24:34;;;;;;;4.80;2.55;;;;;;;;;;5031456;28;20487;-40
2023/09/01 09:27:03;;;;;;;7.60;2.83;;;;;;;;;;5042370;28;20044;-39
2023/09/01 09:29:39;;;;;;;9.18;2.72;;;;;;;;;;5031396;28;20061;-40
2023/09/01 09:32:19;;;;;;;8.82;2.97;;;;;;;;;;5042351;28;20372;-39
2023/09/01 09:35:09;;;;;;;6.32;2.80;;;;;;;;;;5031138;28;20029;-40
2023/09/01 09:37:36;;;;;;;11.52;2.78;;;;;;;;;;5032029;28;20033;-42
2023/09/01 09:40:16;;;;;;;7.32;3.40;;;;;;;;;;5051169;28;20125;-39
2023/09/01 09:42:47;;;;;;;6.43;2.70;;;;;;;;;;5031290;28;20557;-40
2023/09/01 09:45:28;;;;;;;7.15;3.08;;;;;;;;;;5038303;28;20025;-40
2023/09/01 09:47:56;;;;;;;8.30;3.08;;;;;;;;;;5051140;28;20033;-39
2023/09/01 09:50:24;;;;;;;12.63;2.95;;;;;;;;;;5051123;28;20025;-40
2023/09/01 09:52:55;;;;;;;6.75;3.47;;;;;;;;;;5050975;28;20039;-40
2023/09/01 09:55:30;;;;;;;8.73;3.00;;;;;;;;;;5051286;28;20029;-40
2023/09/01 09:58:16;;;;;;;13.90;3.50;;;;;;;;;;5051165;28;20364;-39
2023/09/01 10:00:46;;;;;;;13.00;3.53;;;;;;;;;;5051098;28;20021;-39
2023/09/01 10:03:13;;;;;;;10.30;2.75;;;;;;;;;;5051119;28;20037;-40
2023/09/01 10:05:41;;;;;;;12.10;3.08;;;;;;;;;;5050044;28;20045;-42
2023/09/01 10:08:08;;;;;;;10.32;3.35;;;;;;;;;;5043976;28;20799;-40
2023/09/01 10:10:37;;;;;;;12.52;3.03;;;;;;;;;;5048830;28;20041;-40
2023/09/01 10:13:06;;;;;;;11.38;2.78;;;;;;;;;;5049207;28;20471;-43
2023/09/01 10:15:34;;;;;;;13.77;3.20;;;;;;;;;;5049872;28;20056;-42
2023/09/01 10:18:04;;;;;;;13.35;2.97;;;;;;;;;;5050357;28;20033;-44
2023/09/01 10:20:32;;;;;;;12.95;3.20;;;;;;;;;;5049353;28;20817;-41
2023/09/01 10:22:59;;;;;;;17.15;3.55;;;;;;;;;;5048276;28;20497;-43
2023/09/01 10:25:26;;;;;;;10.05;3.05;;;;;;;;;;5047748;28;20032;-43
2023/09/01 10:28:13;;;;;;;15.27;3.45;;;;;;;;;;5049869;28;20037;-45
2023/09/01 10:30:41;;;;;;;16.27;2.95;;;;;;;;;;5048815;28;20090;-45
2023/09/01 10:33:08;;;;;;;17.38;3.78;;;;;;;;;;5051545;28;20517;-43
2023/09/01 10:35:37;;;;;;;12.40;3.78;;;;;;;;;;5052826;28;20025;-43
2023/09/01 10:38:11;;;;;;;16.35;3.60;;;;;;;;;;5053586;28;20522;-43
2023/09/01 10:40:42;;;;;;;17.52;3.75;;;;;;;;;;5053419;28;20108;-42
2023/09/01 10:43:12;;;;;;;16.20;3.47;;;;;;;;;;5051152;28;20032;-42
2023/09/01 10:45:40;;;;;;;16.02;3.22;;;;;;;;;;5053248;28;20057;-40
2023/09/01 10:48:13;;;;;;;9.77;3.05;;;;;;;;;;5052183;28;20391;-40
2023/09/01 10:50:41;;;;;;;19.63;4.15;;;;;;;;;;5059241;28;20394;-41
2023/09/01 10:53:27;;;;;;;21.05;4.00;;;;;;;;;;5062187;28;20032;-40
2023/09/01 10:56:14;;;;;;;14.73;3.90;;;;;;;;;;5062023;28;20383;-43
2023/09/01 10:58:47;;;;;;;27.45;4.57;;;;;;;;;;5033696;28;20047;-40
2023/09/01 11:01:34;;;;;;;27.30;5.00;;;;;;;;;;5033184;28;20124;-40
2023/09/01 11:04:19;;;;;;;21.67;4.32;;;;;;;;;;5032738;28;20043;-39
2023/09/01 11:07:13;;;;;;;22.95;4.30;;;;;;;;;;5033814;28;20056;-42
2023/09/01 11:09:43;;;;;;;20.85;4.03;;;;;;;;;;5037138;28;20110;-42
2023/09/01 11:12:10;;;;;;;23.65;4.07;;;;;;;;;;5052003;28;20094;-46
2023/09/01 11:14:38;;;;;;;83.75;8.23;;;;;;;;;;5054540;28;20053;-43
2023/09/01 11:17:05;;;;;;;41.75;5.50;;;;;;;;;;5051928;28;20052;-46
2023/09/01 11:19:34;;;;;;;52.85;6.13;;;;;;;;;;5053070;28;20103;-41
2023/09/01 11:22:01;;;;;;;56.70;7.80;;;;;;;;;;5053142;28;20033;-42
2023/09/01 11:24:28;;;;;;;52.47;7.03;;;;;;;;;;5052457;28;20037;-46
2023/09/01 11:26:55;;;;;;;130.75;10.05;;;;;;;;;;5055976;28;20127;-46
2023/09/01 11:29:22;;;;;;;418.20;24.35;;;;;;;;;;5051014;28;20025;-45
2023/09/01 11:31:48;;;;;;;340.58;20.60;;;;;;;;;;5053339;28;20024;-41
2023/09/01 11:34:15;;;;;;;176.30;13.95;;;;;;;;;;5052602;28;20032;-42
2023/09/01 11:36:46;;;;;;;122.65;9.73;;;;;;;;;;5049922;28;20035;-43
2023/09/01 11:39:13;;;;;;;98.20;9.88;;;;;;;;;;5052611;28;20024;-42
2023/09/01 11:41:41;;;;;;;86.32;9.85;;;;;;;;;;5052903;28;20029;-45
2023/09/01 11:44:08;;;;;;;67.85;9.07;;;;;;;;;;5052267;28;20024;-43
2023/09/01 11:46:35;;;;;;;81.68;9.35;;;;;;;;;;5052846;28;20029;-43
2023/09/01 11:49:03;;;;;;;81.45;8.77;;;;;;;;;;5052736;28;20033;-44
2023/09/01 11:51:42;;;;;;;257.38;20.65;;;;;;;;;;5052782;28;20053;-42
2023/09/01 11:54:09;;;;;;;388.48;25.85;;;;;;;;;;5052701;28;20029;-43
2023/09/01 11:56:37;;;;;;;235.85;18.90;;;;;;;;;;5052588;28;20025;-43
2023/09/01 11:59:04;;;;;;;151.82;14.27;;;;;;;;;;5052695;28;20517;-43
2023/09/01 12:01:41;;;;;;;119.97;11.88;;;;;;;;;;5052764;28;20467;-43
2023/09/01 12:04:09;;;;;;;145.60;15.40;;;;;;;;;;5052212;28;20056;-43
2023/09/01 12:06:44;;;;;;;135.82;15.90;;;;;;;;;;5052446;28;20025;-43
2023/09/01 12:09:15;;;;;;;149.00;16.55;;;;;;;;;;5052277;28;20033;-43
2023/09/01 12:12:00;;;;;;;159.50;17.90;;;;;;;;;;5048657;28;20025;-42
2023/09/01 12:14:30;;;;;;;139.77;17.83;;;;;;;;;;5031882;28;20500;-44
2023/09/01 12:16:58;;;;;;;85.53;9.63;;;;;;;;;;5032154;28;20392;-42
2023/09/01 12:19:26;;;;;;;72.22;8.98;;;;;;;;;;5046425;28;20080;-43
2023/09/01 12:21:54;;;;;;;73.88;9.70;;;;;;;;;;5052028;28;20025;-43
2023/09/01 12:24:21;;;;;;;68.13;9.95;;;;;;;;;;5051751;28;20045;-43
2023/09/01 12:26:48;;;;;;;62.67;9.88;;;;;;;;;;5051821;28;20037;-43
2023/09/01 12:29:15;;;;;;;76.85;9.85;;;;;;;;;;5051686;28;20021;-44
2023/09/01 12:31:45;;;;;;;72.10;9.93;;;;;;;;;;5051832;28;20398;-46
2023/09/01 12:34:12;;;;;;;65.22;10.02;;;;;;;;;;5051519;28;20025;-46
2023/09/01 12:36:39;;;;;;;75.70;11.40;;;;;;;;;;5051736;28;20040;-46
2023/09/01 12:39:06;;;;;;;80.78;11.70;;;;;;;;;;5049032;28;20024;-43
2023/09/01 12:41:33;;;;;;;73.90;10.75;;;;;;;;;;5051061;28;20087;-43
2023/09/01 12:44:00;;;;;;;93.68;11.88;;;;;;;;;;5051421;28;20068;-41
2023/09/01 12:46:26;;;;;;;96.13;13.23;;;;;;;;;;5051405;28;20071;-41
2023/09/01 12:48:53;;;;;;;82.15;11.75;;;;;;;;;;5051506;28;20395;-43
2023/09/01 12:51:20;;;;;;;86.03;11.80;;;;;;;;;;5051136;28;20112;-42
2023/09/01 12:53:47;;;;;;;55.20;9.35;;;;;;;;;;5050949;28;20368;-43
2023/09/01 12:56:14;;;;;;;59.67;8.95;;;;;;;;;;5051046;28;20478;-43
2023/09/01 12:58:41;;;;;;;64.95;9.20;;;;;;;;;;5050952;28;20466;-43
2023/09/01 13:01:08;;;;;;;65.93;10.32;;;;;;;;;;5050445;28;20167;-43
2023/09/01 13:03:35;;;;;;;76.88;11.38;;;;;;;;;;5050744;28;20127;-44
2023/09/01 13:06:09;;;;;;;51.80;9.80;;;;;;;;;;5050986;28;20028;-45
2023/09/01 13:08:36;;;;;;;63.30;9.60;;;;;;;;;;5051040;28;20479;-44
2023/09/01 13:11:14;;;;;;;89.03;12.02;;;;;;;;;;5051026;28;20032;-46
2023/09/01 13:13:41;;;;;;;53.55;8.50;;;;;;;;;;5050552;28;20167;-47
2023/09/01 13:16:12;;;;;;;66.35;10.95;;;;;;;;;;5050760;28;20182;-45
2023/09/01 13:18:41;;;;;;;55.08;9.48;;;;;;;;;;5031372;28;20073;-45
2023/09/01 13:21:08;;;;;;;62.70;8.48;;;;;;;;;;5043576;28;20033;-44
2023/09/01 13:23:35;;;;;;;76.43;8.70;;;;;;;;;;5050633;28;20075;-44
2023/09/01 13:26:02;;;;;;;46.80;7.20;;;;;;;;;;5051055;28;20045;-44
2023/09/01 13:28:29;;;;;;;60.72;7.53;;;;;;;;;;5037185;28;20048;-45
2023/09/01 13:30:58;;;;;;;45.78;6.60;;;;;;;;;;5037100;28;20491;-44
2023/09/01 13:33:25;;;;;;;55.15;6.75;;;;;;;;;;5030926;28;20498;-46
2023/09/01 13:35:54;;;;;;;56.30;7.05;;;;;;;;;;5030827;28;20033;-45
2023/09/01 13:38:21;;;;;;;54.17;6.90;;;;;;;;;;5030622;28;20037;-44
2023/09/01 13:40:54;;;;;;;50.10;6.90;;;;;;;;;;5043607;28;20108;-43
2023/09/01 13:43:21;;;;;;;49.58;6.53;;;;;;;;;;5030687;28;20029;-44
2023/09/01 13:45:48;;;;;;;52.78;5.75;;;;;;;;;;5030802;28;20150;-44
2023/09/01 13:48:15;;;;;;;49.60;6.03;;;;;;;;;;5043499;28;20037;-46
2023/09/01 13:50:42;;;;;;;48.97;5.65;;;;;;;;;;5040836;28;20045;-46
2023/09/01 13:53:09;;;;;;;49.35;5.78;;;;;;;;;;5030799;28;20446;-43
2023/09/01 13:55:36;;;;;;;72.20;7.10;;;;;;;;;;5037857;28;20394;-43
2023/09/01 13:58:03;;;;;;;147.75;10.90;;;;;;;;;;5036944;28;20116;-43
2023/09/01 14:00:30;;;;;;;78.63;7.57;;;;;;;;;;5049476;28;20029;-45
2023/09/01 14:02:57;;;;;;;87.78;7.03;;;;;;;;;;5030099;28;20036;-45
2023/09/01 14:05:24;;;;;;;65.28;6.53;;;;;;;;;;5031279;28;20503;-45
2023/09/01 14:07:51;;;;;;;87.68;7.55;;;;;;;;;;5034028;28;20100;-44
2023/09/01 14:10:18;;;;;;;50.70;5.72;;;;;;;;;;5034422;28;20041;-48
2023/09/01 14:12:45;;;;;;;37.47;4.43;;;;;;;;;;5034552;28;20029;-47
2023/09/01 14:15:12;;;;;;;43.13;4.80;;;;;;;;;;5033753;28;20459;-44
2023/09/01 14:17:41;;;;;;;80.70;7.63;;;;;;;;;;5034006;28;20061;-45
2023/09/01 14:20:08;;;;;;;119.47;10.07;;;;;;;;;;5043416;28;20037;-44
2023/09/01 14:22:35;;;;;;;80.57;7.32;;;;;;;;;;5054129;28;20068;-45
2023/09/01 14:25:02;;;;;;;61.67;6.05;;;;;;;;;;5036168;28;20041;-44
2023/09/01 14:27:29;;;;;;;59.55;5.20;;;;;;;;;;5053799;28;20479;-45
2023/09/01 14:29:56;;;;;;;57.70;5.43;;;;;;;;;;5054134;28;20029;-44
2023/09/01 14:32:23;;;;;;;40.88;5.28;;;;;;;;;;5053882;28;20053;-43
2023/09/01 14:34:50;;;;;;;53.20;5.07;;;;;;;;;;5040294;28;20018;-44